Hazen, Nevada
Current Conditions -  °F | °C
As of 11:56 PM on Sunday 21 Dec 2014 (Local Time) from KNFL Reporting Station
Clear Clear  
Wind Chill: 50°   Ceiling: Unl
Heat Index: 50°   Visibility: 10mi
Dew Point: 38°   Wind: 7mph
Humidity: 63%   Direction: 200°SSW
Pressure: 30.25"   Gusts: NA
Location:  39.5869°N, 119.152°W
Report Text: KNFL 220756Z AUTO 20006KT 10SM CLR 10/03 A3025 RMK AO2 SLP205 T01000033 401670067 $
Loading
Personal Weather Stations






























Interactive Weather Map New forecast layout! Learn more

10-Day Weather Forecast

Advertisements
Track Severe Weather on mobile